createdAt,value
2022-12-31T00:01:11.285Z,6.93
2022-12-31T00:03:40.635Z,7.47
2022-12-31T00:06:21.737Z,8.17
2022-12-31T00:08:51.687Z,6.50
2022-12-31T00:11:20.735Z,7.57
2022-12-31T00:13:50.100Z,6.73
2022-12-31T00:16:23.399Z,6.17
2022-12-31T00:18:55.942Z,4.03
2022-12-31T00:21:24.578Z,3.60
2022-12-31T00:23:53.958Z,3.80
2022-12-31T00:26:25.865Z,2.87
2022-12-31T00:28:55.796Z,4.37
2022-12-31T00:31:28.722Z,3.80
2022-12-31T00:33:57.743Z,4.17
2022-12-31T00:36:29.708Z,2.50
2022-12-31T00:39:00.656Z,3.77
2022-12-31T00:41:30.456Z,4.50
2022-12-31T00:43:59.259Z,3.57
2022-12-31T00:46:29.129Z,5.63
2022-12-31T00:48:57.810Z,2.57
2022-12-31T00:51:27.571Z,2.97
2022-12-31T00:53:57.351Z,1.77
2022-12-31T00:56:28.750Z,2.10
2022-12-31T00:58:57.894Z,4.17
2022-12-31T01:01:31.517Z,2.17
2022-12-31T01:04:03.662Z,2.13
2022-12-31T01:06:32.595Z,2.53
2022-12-31T01:09:00.899Z,2.60
2022-12-31T01:11:30.080Z,2.20
2022-12-31T01:14:00.428Z,5.80
2022-12-31T01:16:33.549Z,2.40
2022-12-31T01:19:05.537Z,2.43
2022-12-31T01:21:35.557Z,3.00
2022-12-31T01:24:04.535Z,4.50
2022-12-31T01:26:33.154Z,2.90
2022-12-31T01:29:02.104Z,3.20
2022-12-31T01:31:33.892Z,2.80
2022-12-31T01:34:02.820Z,2.13
2022-12-31T01:36:34.093Z,2.20
2022-12-31T01:39:06.496Z,2.23
2022-12-31T01:41:39.252Z,2.97
2022-12-31T01:44:51.806Z,2.93
2022-12-31T01:47:34.544Z,3.00
2022-12-31T01:50:11.594Z,3.07
2022-12-31T01:52:46.184Z,1.93
2022-12-31T01:55:22.365Z,2.60
2022-12-31T01:57:56.251Z,1.43
2022-12-31T02:00:24.883Z,3.80
2022-12-31T02:02:55.114Z,1.47
2022-12-31T02:05:30.233Z,8.00
2022-12-31T02:07:59.987Z,2.33
2022-12-31T02:10:28.291Z,4.33
2022-12-31T02:12:57.278Z,1.87
2022-12-31T02:15:34.108Z,1.23
2022-12-31T02:18:13.871Z,2.03
2022-12-31T02:21:17.868Z,1.77
2022-12-31T02:24:21.033Z,2.97
2022-12-31T02:27:03.003Z,1.57
2022-12-31T02:30:22.543Z,1.20
2022-12-31T02:33:09.403Z,1.73
2022-12-31T02:35:49.679Z,2.30
2022-12-31T02:38:26.334Z,2.37
2022-12-31T02:40:55.461Z,2.33
2022-12-31T02:43:24.449Z,2.90
2022-12-31T02:46:06.679Z,1.20
2022-12-31T02:48:48.043Z,1.27
2022-12-31T02:51:36.182Z,1.97
2022-12-31T02:54:27.320Z,3.03
2022-12-31T02:57:14.634Z,2.40
2022-12-31T03:00:11.869Z,4.20
2022-12-31T03:02:46.743Z,1.33
2022-12-31T03:05:18.661Z,3.03
2022-12-31T03:07:47.315Z,1.23
2022-12-31T03:10:16.306Z,1.00
2022-12-31T03:12:47.680Z,1.70
2022-12-31T03:15:22.517Z,1.57
2022-12-31T03:17:56.389Z,3.07
2022-12-31T03:20:48.169Z,2.83
2022-12-31T03:23:21.532Z,1.10
2022-12-31T03:25:49.321Z,1.87
2022-12-31T03:28:20.711Z,3.83
2022-12-31T03:30:53.018Z,2.73
2022-12-31T03:33:23.774Z,3.27
2022-12-31T03:35:54.100Z,1.57
2022-12-31T03:38:23.017Z,2.77
2022-12-31T03:40:55.156Z,2.40
2022-12-31T03:43:23.968Z,1.30
2022-12-31T03:45:54.160Z,3.57
2022-12-31T03:48:24.584Z,1.20
2022-12-31T03:50:53.259Z,3.30
2022-12-31T03:53:21.876Z,1.10
2022-12-31T03:55:53.107Z,3.30
2022-12-31T03:58:21.506Z,3.70
2022-12-31T04:00:50.444Z,1.20
2022-12-31T04:03:18.815Z,1.00
2022-12-31T04:05:54.608Z,1.60
2022-12-31T04:08:23.242Z,1.73
2022-12-31T04:10:51.698Z,2.40
2022-12-31T04:13:20.361Z,1.23
2022-12-31T04:15:52.291Z,0.80
2022-12-31T04:18:20.935Z,3.37
2022-12-31T04:20:50.601Z,1.73
2022-12-31T04:23:19.293Z,1.00
2022-12-31T04:25:47.899Z,1.63
2022-12-31T04:28:16.189Z,1.67
2022-12-31T04:30:44.939Z,1.70
2022-12-31T04:33:13.778Z,1.80
2022-12-31T04:35:42.160Z,1.13
2022-12-31T04:38:12.090Z,1.10
2022-12-31T04:41:00.784Z,2.43
2022-12-31T04:43:29.396Z,2.10
2022-12-31T04:45:58.103Z,1.87
2022-12-31T04:48:26.844Z,1.17
2022-12-31T04:50:55.070Z,2.37
2022-12-31T04:53:24.959Z,1.20
2022-12-31T04:55:53.357Z,1.23
2022-12-31T04:58:22.365Z,1.90
2022-12-31T05:00:54.643Z,3.03
2022-12-31T05:03:25.603Z,1.20
2022-12-31T05:05:54.941Z,1.37
2022-12-31T05:08:24.564Z,1.03
2022-12-31T05:10:53.150Z,2.40
2022-12-31T05:13:21.760Z,1.10
2022-12-31T05:15:50.134Z,1.30
2022-12-31T05:18:19.238Z,1.90
2022-12-31T05:20:47.925Z,1.10
2022-12-31T05:23:17.768Z,2.50
2022-12-31T05:25:49.357Z,1.87
2022-12-31T05:28:18.770Z,1.73
2022-12-31T05:30:50.929Z,1.83
2022-12-31T05:33:19.982Z,4.30
2022-12-31T05:35:48.515Z,2.30
2022-12-31T05:38:17.120Z,1.23
2022-12-31T05:40:47.141Z,2.83
2022-12-31T05:43:15.907Z,1.83
2022-12-31T05:45:44.540Z,1.40
2022-12-31T05:48:13.124Z,2.67
2022-12-31T05:50:41.699Z,1.20
2022-12-31T05:53:09.943Z,1.50
2022-12-31T05:55:38.202Z,1.37
2022-12-31T05:58:07.897Z,0.90
2022-12-31T06:00:36.141Z,3.80
2022-12-31T06:03:05.655Z,1.40
2022-12-31T06:05:34.412Z,1.20
2022-12-31T06:08:02.995Z,1.40
2022-12-31T06:10:31.313Z,2.33
2022-12-31T06:12:59.930Z,1.00
2022-12-31T06:15:29.664Z,1.50
2022-12-31T06:17:58.805Z,3.30
2022-12-31T06:20:27.859Z,1.10
2022-12-31T06:22:56.093Z,2.10
2022-12-31T06:25:24.408Z,2.93
2022-12-31T06:27:52.678Z,2.20
2022-12-31T06:30:20.917Z,1.98
2022-12-31T06:32:50.598Z,1.15
2022-12-31T06:35:19.738Z,2.13
2022-12-31T06:37:48.355Z,2.13
2022-12-31T06:40:17.179Z,3.33
2022-12-31T06:42:45.866Z,2.90
2022-12-31T06:45:14.149Z,1.60
2022-12-31T06:47:42.883Z,1.73
2022-12-31T06:50:12.919Z,2.87
2022-12-31T06:52:41.555Z,3.17
2022-12-31T06:55:12.085Z,11.60
2022-12-31T06:57:41.242Z,3.23
2022-12-31T07:00:12.210Z,5.53
2022-12-31T07:03:08.820Z,1.97
2022-12-31T07:05:47.788Z,4.27
2022-12-31T07:08:35.895Z,2.97
2022-12-31T07:11:13.907Z,2.30
2022-12-31T07:13:58.177Z,1.97
2022-12-31T07:16:47.088Z,2.20
2022-12-31T07:19:31.073Z,3.17
2022-12-31T07:22:01.612Z,1.73
2022-12-31T07:24:30.682Z,3.77
2022-12-31T07:27:20.491Z,1.70
2022-12-31T07:30:07.704Z,2.43
2022-12-31T07:33:23.528Z,1.80
2022-12-31T07:36:11.359Z,1.43
2022-12-31T07:38:52.752Z,2.10
2022-12-31T07:41:41.264Z,2.30
2022-12-31T07:44:38.920Z,3.87
2022-12-31T07:47:21.788Z,3.10
2022-12-31T07:49:51.272Z,2.27
2022-12-31T07:52:20.970Z,5.87
2022-12-31T07:54:50.991Z,3.87
2022-12-31T07:57:22.594Z,3.60
2022-12-31T08:00:06.565Z,4.33
2022-12-31T08:03:06.067Z,3.70
2022-12-31T08:05:49.692Z,4.07
2022-12-31T08:08:37.138Z,4.60
2022-12-31T08:11:20.763Z,3.70
2022-12-31T08:13:50.333Z,3.43
2022-12-31T08:16:19.677Z,3.77
2022-12-31T08:18:48.746Z,5.07
2022-12-31T08:21:34.974Z,4.10
2022-12-31T08:24:19.901Z,3.13
2022-12-31T08:27:05.906Z,4.30
2022-12-31T08:29:43.018Z,3.10
2022-12-31T08:32:21.943Z,5.20
2022-12-31T08:35:04.209Z,2.90
2022-12-31T08:37:40.935Z,2.93
2022-12-31T08:40:23.733Z,3.90
2022-12-31T08:43:25.886Z,3.33
2022-12-31T08:45:56.846Z,6.30
2022-12-31T08:48:34.723Z,3.03
2022-12-31T08:51:03.593Z,4.40
2022-12-31T08:53:32.760Z,4.70
2022-12-31T08:56:23.646Z,7.40
2022-12-31T08:59:05.035Z,4.83
2022-12-31T09:01:51.465Z,3.80
2022-12-31T09:04:32.181Z,3.07
2022-12-31T09:07:04.896Z,2.47
2022-12-31T09:09:44.580Z,2.20
2022-12-31T09:12:26.092Z,2.38
2022-12-31T09:15:04.882Z,2.33
2022-12-31T09:17:47.307Z,2.50
2022-12-31T09:20:26.118Z,3.40
2022-12-31T09:22:57.064Z,5.18
2022-12-31T09:25:27.698Z,2.20
2022-12-31T09:28:15.461Z,2.33
2022-12-31T09:30:55.808Z,2.47
2022-12-31T09:33:44.450Z,1.55
2022-12-31T09:36:20.375Z,1.77
2022-12-31T09:39:01.867Z,4.70
2022-12-31T09:42:36.394Z,2.05
2022-12-31T09:45:46.444Z,2.60
2022-12-31T09:49:10.639Z,2.58
2022-12-31T09:51:53.380Z,2.20
2022-12-31T09:54:51.314Z,2.47
2022-12-31T09:57:40.789Z,2.38
2022-12-31T10:00:21.371Z,9.77
2022-12-31T10:03:17.717Z,6.68
2022-12-31T10:06:13.385Z,1.80
2022-12-31T10:09:22.303Z,2.35
2022-12-31T10:12:19.655Z,2.08
2022-12-31T10:15:01.402Z,2.95
2022-12-31T10:17:52.129Z,6.43
2022-12-31T10:20:52.046Z,2.45
2022-12-31T10:23:57.796Z,3.10
2022-12-31T10:26:54.271Z,2.45
2022-12-31T10:29:40.947Z,6.55
2022-12-31T10:32:21.359Z,7.03
2022-12-31T10:35:02.516Z,6.80
2022-12-31T10:37:42.361Z,3.58
2022-12-31T10:40:31.146Z,4.07
2022-12-31T10:43:55.192Z,2.50
2022-12-31T10:47:06.829Z,3.58
2022-12-31T10:50:15.377Z,6.38
2022-12-31T10:53:37.458Z,3.78
2022-12-31T10:57:08.028Z,2.90
2022-12-31T11:00:03.688Z,1.98
2022-12-31T11:03:21.078Z,2.28
2022-12-31T11:06:45.533Z,1.98
2022-12-31T11:10:04.345Z,2.42
2022-12-31T11:13:09.000Z,2.25
2022-12-31T11:16:07.589Z,3.08
2022-12-31T11:18:49.177Z,2.00
2022-12-31T11:21:36.296Z,3.05
2022-12-31T11:24:25.387Z,3.55
2022-12-31T11:27:16.456Z,3.78
2022-12-31T11:30:05.452Z,3.67
2022-12-31T11:32:50.826Z,3.10
2022-12-31T11:35:39.161Z,1.92
2022-12-31T11:38:25.437Z,2.92
2022-12-31T11:41:03.709Z,3.03
2022-12-31T11:43:39.854Z,2.58
2022-12-31T11:46:35.112Z,2.22
2022-12-31T11:49:18.361Z,4.15
2022-12-31T11:52:16.069Z,5.78
2022-12-31T11:55:19.965Z,3.75
2022-12-31T11:57:52.244Z,2.95
2022-12-31T12:00:24.370Z,5.35
2022-12-31T12:03:00.518Z,1.92
2022-12-31T12:05:29.802Z,1.70
2022-12-31T12:07:58.323Z,1.58
2022-12-31T12:10:36.009Z,1.20
2022-12-31T12:13:16.105Z,1.10
2022-12-31T12:15:50.049Z,2.03
2022-12-31T12:18:41.043Z,3.00
2022-12-31T12:21:13.725Z,1.20
2022-12-31T12:23:43.450Z,2.33
2022-12-31T12:26:29.365Z,4.47
2022-12-31T12:29:09.103Z,4.10
2022-12-31T12:31:38.264Z,1.63
2022-12-31T12:34:24.297Z,1.50
2022-12-31T12:36:52.956Z,1.20
2022-12-31T12:39:25.064Z,1.25
2022-12-31T12:42:09.438Z,1.20
2022-12-31T12:44:38.081Z,1.50
2022-12-31T12:47:12.668Z,3.70
2022-12-31T12:49:47.534Z,2.25
2022-12-31T12:52:42.008Z,2.13
2022-12-31T12:55:24.540Z,1.95
2022-12-31T12:58:05.223Z,3.50
2022-12-31T13:00:39.261Z,1.58
2022-12-31T13:04:07.410Z,3.00
2022-12-31T13:06:53.193Z,1.15
2022-12-31T13:09:43.985Z,2.15
2022-12-31T13:12:25.080Z,2.25
2022-12-31T13:15:03.505Z,1.02
2022-12-31T13:18:01.274Z,1.38
2022-12-31T13:20:39.140Z,2.33
2022-12-31T13:23:23.071Z,0.70
2022-12-31T13:26:07.536Z,1.02
2022-12-31T13:28:40.419Z,1.08
2022-12-31T13:31:17.730Z,1.63
2022-12-31T13:33:53.486Z,2.97
2022-12-31T13:36:26.606Z,1.40
2022-12-31T13:38:58.995Z,1.75
2022-12-31T13:41:35.415Z,0.85
2022-12-31T13:44:14.201Z,1.60
2022-12-31T13:46:51.896Z,2.42
2022-12-31T13:49:28.175Z,1.33
2022-12-31T13:52:06.781Z,4.00
2022-12-31T13:54:47.290Z,1.80
2022-12-31T13:57:31.171Z,1.20
2022-12-31T14:00:04.826Z,2.72
2022-12-31T14:02:48.857Z,2.35
2022-12-31T14:05:24.347Z,2.53
2022-12-31T14:07:57.565Z,1.88
2022-12-31T14:10:45.623Z,1.73
2022-12-31T14:13:42.900Z,1.60
2022-12-31T14:16:24.006Z,1.65
2022-12-31T14:19:06.240Z,2.55
2022-12-31T14:21:44.702Z,4.00
2022-12-31T14:24:21.347Z,2.85
2022-12-31T14:26:57.858Z,6.47
2022-12-31T14:29:35.021Z,4.43
2022-12-31T14:32:46.688Z,4.47
2022-12-31T14:35:36.060Z,4.18
2022-12-31T14:38:15.621Z,4.78
2022-12-31T14:41:01.013Z,3.50
2022-12-31T14:43:45.183Z,3.47
2022-12-31T14:46:25.468Z,2.75
2022-12-31T14:49:08.842Z,2.97
2022-12-31T14:51:38.977Z,1.63
2022-12-31T14:54:28.559Z,2.92
2022-12-31T14:56:57.528Z,2.15
2022-12-31T14:59:33.345Z,3.15
2022-12-31T15:02:20.960Z,2.63
2022-12-31T15:04:49.733Z,2.65
2022-12-31T15:07:31.384Z,3.80
2022-12-31T15:10:12.372Z,2.22
2022-12-31T15:12:52.581Z,3.28
2022-12-31T15:15:43.856Z,1.33
2022-12-31T15:18:37.016Z,1.92
2022-12-31T15:21:34.354Z,2.53
2022-12-31T15:24:03.454Z,2.05
2022-12-31T15:26:34.721Z,3.35
2022-12-31T15:29:06.212Z,1.65
2022-12-31T15:31:37.700Z,1.85
2022-12-31T15:34:22.151Z,1.58
2022-12-31T15:36:54.866Z,2.40
2022-12-31T15:39:37.765Z,1.45
2022-12-31T15:42:38.651Z,2.13
2022-12-31T15:45:18.318Z,2.55
2022-12-31T15:47:57.087Z,3.43
2022-12-31T15:50:26.989Z,4.53
2022-12-31T15:52:58.375Z,2.13
2022-12-31T15:55:34.918Z,1.80
2022-12-31T15:58:08.262Z,3.63
2022-12-31T16:00:53.097Z,4.07
2022-12-31T16:03:28.171Z,3.00
2022-12-31T16:06:01.301Z,5.50
2022-12-31T16:08:32.947Z,3.03
2022-12-31T16:11:04.288Z,2.77
2022-12-31T16:13:37.631Z,2.63
2022-12-31T16:16:09.322Z,3.30
2022-12-31T16:18:40.687Z,4.13
2022-12-31T16:21:25.557Z,7.50
2022-12-31T16:23:55.617Z,6.60
2022-12-31T16:26:26.421Z,4.13
2022-12-31T16:28:59.903Z,4.53
2022-12-31T16:31:30.801Z,7.17
2022-12-31T16:34:15.907Z,9.93
2022-12-31T16:36:55.134Z,6.20
2022-12-31T16:39:31.716Z,6.17
2022-12-31T16:42:19.835Z,5.73
2022-12-31T16:44:48.930Z,8.90
2022-12-31T16:47:21.441Z,6.70
2022-12-31T16:50:00.023Z,9.77
2022-12-31T16:52:34.634Z,8.63
2022-12-31T16:55:08.201Z,9.40
2022-12-31T16:57:37.232Z,8.47
2022-12-31T17:00:08.163Z,8.37
2022-12-31T17:02:40.216Z,9.30
2022-12-31T17:05:20.349Z,10.37
2022-12-31T17:07:49.443Z,9.67
2022-12-31T17:10:23.563Z,10.27
2022-12-31T17:15:46.178Z,25.70
2022-12-31T17:18:20.217Z,15.50
2022-12-31T17:20:52.078Z,10.27
2022-12-31T17:23:27.763Z,14.23
2022-12-31T17:26:01.646Z,12.47
2022-12-31T17:28:42.909Z,9.93
2022-12-31T17:31:37.344Z,11.10
2022-12-31T17:34:19.077Z,8.57
2022-12-31T17:36:58.640Z,7.57
2022-12-31T17:39:29.091Z,9.40
2022-12-31T17:41:59.593Z,7.00
2022-12-31T17:44:29.674Z,9.23
2022-12-31T17:46:58.638Z,7.47
2022-12-31T17:49:31.167Z,7.53
2022-12-31T17:52:00.765Z,6.23
2022-12-31T17:54:29.383Z,6.43
2022-12-31T17:56:58.869Z,5.73
2022-12-31T17:59:30.521Z,6.17
2022-12-31T18:02:02.521Z,6.67
2022-12-31T18:04:31.230Z,8.53
2022-12-31T18:07:01.177Z,6.23
2022-12-31T18:09:29.771Z,6.43
2022-12-31T18:12:01.460Z,6.00
2022-12-31T18:14:30.417Z,10.77
2022-12-31T18:16:59.014Z,7.23
2022-12-31T18:20:02.939Z,19.87
2022-12-31T18:22:18.459Z,20.80
2022-12-31T18:24:47.093Z,10.70
2022-12-31T18:27:18.454Z,8.77
2022-12-31T18:29:47.794Z,9.47
2022-12-31T18:32:23.874Z,8.23
2022-12-31T18:34:53.050Z,6.27
2022-12-31T18:37:23.364Z,7.97
2022-12-31T18:39:51.952Z,7.50
2022-12-31T18:42:24.201Z,10.00
2022-12-31T18:44:53.163Z,15.57
2022-12-31T18:47:23.203Z,7.97
2022-12-31T18:49:52.087Z,8.10
2022-12-31T18:52:25.109Z,7.77
2022-12-31T18:54:53.693Z,8.80
2022-12-31T18:57:22.257Z,9.57
2022-12-31T18:59:50.463Z,9.60
2022-12-31T19:02:21.176Z,7.93
2022-12-31T19:04:49.792Z,19.97
2022-12-31T19:07:18.403Z,28.77
2022-12-31T19:09:51.395Z,32.60
2022-12-31T19:12:23.083Z,38.90
2022-12-31T19:14:51.300Z,23.10
2022-12-31T19:17:21.555Z,28.73
2022-12-31T19:19:49.803Z,31.53
2022-12-31T19:22:18.434Z,16.13
2022-12-31T19:24:48.423Z,19.60
2022-12-31T19:27:17.071Z,8.77
2022-12-31T19:29:46.034Z,10.20
2022-12-31T19:32:14.850Z,10.87
2022-12-31T19:34:43.739Z,10.07
2022-12-31T19:37:16.351Z,9.40
2022-12-31T19:39:44.763Z,9.93
2022-12-31T19:42:17.174Z,11.30
2022-12-31T19:44:45.830Z,9.40
2022-12-31T19:47:14.552Z,10.63
2022-12-31T19:49:43.164Z,11.37
2022-12-31T19:52:12.369Z,10.63
2022-12-31T19:54:41.057Z,12.77
2022-12-31T19:57:09.738Z,12.90
2022-12-31T19:59:39.681Z,12.53
2022-12-31T20:02:08.511Z,10.77
2022-12-31T20:04:37.204Z,13.30
2022-12-31T20:07:06.363Z,11.77
2022-12-31T20:09:34.961Z,12.10
2022-12-31T20:12:03.575Z,12.87
2022-12-31T20:14:32.167Z,13.07
2022-12-31T20:17:01.880Z,16.30
2022-12-31T20:19:30.452Z,22.43
2022-12-31T20:21:59.574Z,33.87
2022-12-31T20:24:27.870Z,22.77
2022-12-31T20:26:56.453Z,19.53
2022-12-31T20:29:25.094Z,11.43
2022-12-31T20:31:53.834Z,18.23
2022-12-31T20:34:23.909Z,18.20
2022-12-31T20:36:52.639Z,16.17
2022-12-31T20:39:21.302Z,23.33
2022-12-31T20:41:49.844Z,22.00
2022-12-31T20:44:18.471Z,51.77
2022-12-31T20:46:47.246Z,54.70
2022-12-31T20:49:15.979Z,55.77
2022-12-31T20:51:51.849Z,59.40
2022-12-31T20:54:20.836Z,57.97
2022-12-31T20:56:49.531Z,51.87
2022-12-31T20:59:18.229Z,45.87
2022-12-31T21:02:19.925Z,29.47
2022-12-31T21:04:35.603Z,17.70
2022-12-31T21:07:05.364Z,16.53
2022-12-31T21:09:34.126Z,17.30
2022-12-31T21:12:20.103Z,19.57
2022-12-31T21:14:48.706Z,18.23
2022-12-31T21:17:17.324Z,17.13
2022-12-31T21:19:45.935Z,17.50
2022-12-31T21:22:15.721Z,21.23
2022-12-31T21:24:44.381Z,26.97
2022-12-31T21:27:13.169Z,16.23
2022-12-31T21:30:01.999Z,13.67
2022-12-31T21:32:29.974Z,15.03
2022-12-31T21:35:31.424Z,14.87
2022-12-31T21:37:58.923Z,14.90
2022-12-31T21:40:29.324Z,15.17
2022-12-31T21:42:57.760Z,18.37
2022-12-31T21:45:26.564Z,16.07
2022-12-31T21:48:12.637Z,14.97
2022-12-31T21:50:40.863Z,16.03
2022-12-31T21:53:10.999Z,20.37
2022-12-31T21:55:57.132Z,15.27
2022-12-31T21:58:27.412Z,40.00
2022-12-31T22:01:14.157Z,47.83
2022-12-31T22:03:43.103Z,25.83
2022-12-31T22:06:16.237Z,22.00
2022-12-31T22:08:49.196Z,17.80
2022-12-31T22:11:19.000Z,16.93
2022-12-31T22:13:47.904Z,14.43
2022-12-31T22:16:17.230Z,16.57
2022-12-31T22:18:45.987Z,15.60
2022-12-31T22:21:19.190Z,15.33
2022-12-31T22:23:52.148Z,18.47
2022-12-31T22:26:23.733Z,36.73
2022-12-31T22:28:52.662Z,43.40
2022-12-31T22:31:24.526Z,58.27
2022-12-31T22:33:53.880Z,53.27
2022-12-31T22:36:24.074Z,34.33
2022-12-31T22:38:58.751Z,21.50
2022-12-31T22:41:28.449Z,173.67
2022-12-31T22:44:03.935Z,108.73
2022-12-31T22:46:33.868Z,475.17
2022-12-31T22:49:05.206Z,296.20
2022-12-31T22:51:55.663Z,150.40
2022-12-31T22:54:23.983Z,121.67
2022-12-31T22:56:52.776Z,65.47
2022-12-31T22:59:21.496Z,55.53
2022-12-31T23:01:50.211Z,106.17
2022-12-31T23:04:18.983Z,404.67
2022-12-31T23:06:47.625Z,1092.17
2022-12-31T23:09:35.604Z,1127.10
2022-12-31T23:12:07.802Z,941.33
2022-12-31T23:14:54.366Z,883.87
2022-12-31T23:17:45.638Z,899.90
2022-12-31T23:20:34.210Z,1048.50
2022-12-31T23:23:09.967Z,1032.90
2022-12-31T23:25:41.067Z,906.73
2022-12-31T23:28:13.612Z,872.37
2022-12-31T23:30:43.673Z,863.77
2022-12-31T23:33:20.958Z,1196.93
2022-12-31T23:35:49.968Z,879.60
2022-12-31T23:38:19.757Z,786.13
2022-12-31T23:40:48.384Z,583.57
2022-12-31T23:43:23.112Z,504.40
2022-12-31T23:45:52.163Z,539.80
2022-12-31T23:48:20.765Z,485.57
2022-12-31T23:50:53.859Z,419.13
2022-12-31T23:53:23.361Z,284.87
2022-12-31T23:55:52.078Z,269.97
2022-12-31T23:58:22.664Z,140.73
